createdAt,value
2023-04-29T07:29:41.009Z,100300.00
2023-04-29T07:32:08.415Z,100302.27
2023-04-29T07:34:37.746Z,100310.02
2023-04-29T07:37:09.259Z,100309.83
2023-04-29T07:39:37.280Z,100314.08
2023-04-29T07:42:04.478Z,100310.57
2023-04-29T07:44:31.958Z,100308.64
2023-04-29T07:46:59.543Z,100301.77
2023-04-29T07:49:27.019Z,100301.59
2023-04-29T07:51:53.868Z,100307.77
2023-04-29T07:54:21.843Z,100306.89
2023-04-29T07:56:49.043Z,100302.11
2023-04-29T07:59:16.188Z,100304.56
2023-04-29T08:01:43.959Z,100293.44
2023-04-29T08:04:11.673Z,100283.02
2023-04-29T08:06:48.442Z,100277.88
2023-04-29T08:09:15.738Z,100278.39
2023-04-29T08:11:43.401Z,100275.02
2023-04-29T08:14:12.889Z,100266.88
2023-04-29T08:16:40.272Z,100268.80
2023-04-29T08:19:07.255Z,100269.13
2023-04-29T08:21:35.040Z,100268.55
2023-04-29T08:24:02.232Z,100276.32
2023-04-29T08:26:30.055Z,100274.56
2023-04-29T08:28:57.004Z,100272.98
2023-04-29T08:31:23.887Z,100270.11
2023-04-29T08:33:50.874Z,100276.28
2023-04-29T08:36:17.933Z,100273.64
2023-04-29T08:38:45.920Z,100268.52
2023-04-29T08:41:14.901Z,100268.86
2023-04-29T08:43:41.905Z,100260.36
2023-04-29T08:46:08.853Z,100265.13
2023-04-29T08:48:36.579Z,100268.64
2023-04-29T08:51:03.946Z,100268.25
2023-04-29T08:53:31.467Z,100267.33
2023-04-29T08:56:04.020Z,100261.83
2023-04-29T08:58:31.601Z,100264.65
2023-04-29T09:00:59.228Z,100268.52
2023-04-29T09:03:36.989Z,100271.15
2023-04-29T09:06:04.118Z,100275.19
2023-04-29T09:08:32.235Z,100274.50
2023-04-29T09:10:59.329Z,100278.56
2023-04-29T09:13:30.912Z,100277.52
2023-04-29T09:15:58.208Z,100269.78
2023-04-29T09:18:50.522Z,100264.68
2023-04-29T09:21:22.681Z,100261.27
2023-04-29T09:23:51.681Z,100259.64
2023-04-29T09:26:18.911Z,100258.58
2023-04-29T09:28:47.167Z,100260.17
2023-04-29T09:31:14.193Z,100261.20
2023-04-29T09:33:54.959Z,100259.09
2023-04-29T09:36:37.833Z,100259.30
2023-04-29T09:39:12.144Z,100257.04
2023-04-29T09:41:39.962Z,100250.35
2023-04-29T09:44:07.618Z,100249.48
2023-04-29T09:46:36.307Z,100249.70
2023-04-29T09:49:06.779Z,100248.27
2023-04-29T09:51:37.117Z,100244.56
2023-04-29T09:54:20.057Z,100244.94
2023-04-29T09:56:52.963Z,100244.95
2023-04-29T09:59:20.085Z,100244.77
2023-04-29T10:01:49.059Z,100241.38
2023-04-29T10:04:17.676Z,100244.20
2023-04-29T10:06:52.188Z,100245.98
2023-04-29T10:09:19.896Z,100246.33
2023-04-29T10:11:48.572Z,100238.88
2023-04-29T10:14:16.827Z,100246.80
2023-04-29T10:16:51.881Z,100246.08
2023-04-29T10:19:26.760Z,100256.11
2023-04-29T10:21:55.726Z,100263.34
2023-04-29T10:24:22.875Z,100258.08
2023-04-29T10:26:50.950Z,100261.64
2023-04-29T10:29:18.641Z,100266.62
2023-04-29T10:31:46.785Z,100269.46
2023-04-29T10:34:13.942Z,100284.46
2023-04-29T10:36:41.179Z,100283.77
2023-04-29T10:39:11.237Z,100278.29
2023-04-29T10:41:45.308Z,100278.80
2023-04-29T10:44:13.740Z,100281.26
2023-04-29T10:46:41.687Z,100288.48
2023-04-29T10:49:08.705Z,100292.05
2023-04-29T10:55:19.669Z,100301.31
2023-04-29T10:57:46.530Z,100309.11
2023-04-29T11:00:29.883Z,100313.39
2023-04-29T11:03:01.616Z,100322.05
2023-04-29T11:05:53.929Z,100318.50
2023-04-29T11:08:30.308Z,100310.92
2023-04-29T11:11:01.743Z,100310.05
2023-04-29T11:13:29.764Z,100315.10
2023-04-29T11:16:09.673Z,100322.84
2023-04-29T11:19:06.646Z,100321.77
2023-04-29T11:21:37.180Z,100316.48
2023-04-29T11:24:05.838Z,100320.70
2023-04-29T11:26:36.659Z,100325.47
2023-04-29T11:29:07.843Z,100323.70
2023-04-29T11:31:35.495Z,100321.41
2023-04-29T11:34:04.881Z,100321.03
2023-04-29T11:36:36.791Z,100318.71
2023-04-29T11:39:05.532Z,100316.91
2023-04-29T11:41:35.225Z,100314.42
2023-04-29T11:44:04.604Z,100311.23
2023-04-29T11:46:34.357Z,100302.73
2023-04-29T11:49:02.776Z,100300.80
2023-04-29T11:51:32.323Z,100301.00
2023-04-29T11:54:00.531Z,100298.00
2023-04-29T11:56:30.363Z,100295.36
2023-04-29T11:58:58.621Z,100297.28
2023-04-29T12:01:27.365Z,100303.81
2023-04-29T12:04:02.142Z,100303.66
2023-04-29T12:06:31.221Z,100305.09
2023-04-29T12:09:00.109Z,100297.98
2023-04-29T12:11:28.429Z,100304.33
2023-04-29T12:13:57.999Z,100300.61
2023-04-29T12:16:27.922Z,100297.08
2023-04-29T12:18:58.254Z,100294.42
2023-04-29T12:21:29.356Z,100291.06
2023-04-29T12:24:01.771Z,100295.86
2023-04-29T12:26:31.566Z,100297.48
2023-04-29T12:28:59.274Z,100301.75
2023-04-29T12:31:34.169Z,100296.83
2023-04-29T12:34:03.320Z,100300.38
2023-04-29T12:36:31.016Z,100295.77
2023-04-29T12:39:00.901Z,100296.30
2023-04-29T12:41:39.101Z,100297.52
2023-04-29T12:44:06.686Z,100297.71
2023-04-29T12:46:42.477Z,100298.58
2023-04-29T12:49:10.682Z,100298.92
2023-04-29T12:51:38.020Z,100295.73
2023-04-29T12:54:06.856Z,100297.85
2023-04-29T12:56:39.533Z,100293.25
2023-04-29T12:59:08.229Z,100296.23
2023-04-29T13:01:36.725Z,100300.27
2023-04-29T13:04:08.226Z,100291.27
2023-04-29T13:06:38.974Z,100297.48
2023-04-29T13:09:07.496Z,100301.38
2023-04-29T13:11:36.584Z,100299.23
2023-04-29T13:14:07.488Z,100303.13
2023-04-29T13:16:36.803Z,100303.70
2023-04-29T13:19:12.943Z,100305.13
2023-04-29T13:21:46.350Z,100310.08
2023-04-29T13:24:14.320Z,100317.15
2023-04-29T13:26:42.493Z,100317.69
2023-04-29T13:29:11.306Z,100314.67
2023-04-29T13:31:38.675Z,100320.34
2023-04-29T13:34:06.180Z,100317.69
2023-04-29T13:36:33.576Z,100314.35
2023-04-29T13:39:01.003Z,100315.06
2023-04-29T13:41:34.450Z,100316.30
2023-04-29T13:44:04.936Z,100310.85
2023-04-29T13:46:34.921Z,100310.89
2023-04-29T13:49:29.168Z,100307.56
2023-04-29T14:02:21.450Z,100304.77
2023-04-29T14:04:41.517Z,100306.38
2023-04-29T14:07:08.488Z,100303.03
2023-04-29T14:09:37.163Z,100302.16
2023-04-29T14:12:04.408Z,100299.66
2023-04-29T14:14:31.864Z,100295.61
2023-04-29T14:17:00.961Z,100291.71
2023-04-29T14:19:31.608Z,100293.48
2023-04-29T14:21:59.030Z,100292.41
2023-04-29T14:24:26.682Z,100297.36
2023-04-29T14:26:58.161Z,100289.59
2023-04-29T14:29:26.068Z,100291.20
2023-04-29T14:31:55.201Z,100285.21
2023-04-29T14:34:23.914Z,100289.46
2023-04-29T14:36:53.523Z,100290.38
2023-04-29T14:39:21.251Z,100290.39
2023-04-29T14:41:48.826Z,100286.70
2023-04-29T14:44:16.891Z,100284.40
2023-04-29T14:46:44.029Z,100281.77
2023-04-29T14:49:12.955Z,100281.77
2023-04-29T14:51:41.368Z,100275.40
2023-04-29T14:54:10.681Z,100269.59
2023-04-29T14:56:38.149Z,100269.24
2023-04-29T14:59:08.957Z,100266.10
2023-04-29T15:01:36.836Z,100265.80
2023-04-29T15:04:05.540Z,100266.71
2023-04-29T15:06:34.815Z,100268.15
2023-04-29T15:09:02.407Z,100267.63
2023-04-29T15:11:29.589Z,100265.35
2023-04-29T15:13:58.950Z,100267.48
2023-04-29T15:16:28.623Z,100267.66
2023-04-29T15:18:58.218Z,100267.86
2023-04-29T15:21:26.647Z,100266.98
2023-04-29T15:23:54.603Z,100262.41
2023-04-29T15:26:23.172Z,100261.38
2023-04-29T15:28:50.609Z,100258.91
2023-04-29T15:31:18.255Z,100258.04
2023-04-29T15:33:45.816Z,100253.98
2023-04-29T15:36:14.459Z,100253.96
2023-04-29T15:38:42.074Z,100248.31
2023-04-29T15:41:09.831Z,100249.90
2023-04-29T15:43:40.392Z,100246.90
2023-04-29T15:46:08.848Z,100245.31
2023-04-29T15:48:36.982Z,100246.21
2023-04-29T15:51:04.060Z,100249.56
2023-04-29T15:53:33.722Z,100243.55
2023-04-29T15:56:04.182Z,100247.78
2023-04-29T15:58:31.635Z,100253.25
2023-04-29T16:00:59.004Z,100254.48
2023-04-29T16:03:27.529Z,100253.77
2023-04-29T16:05:54.995Z,100252.52
2023-04-29T16:08:25.899Z,100246.17
2023-04-29T16:10:53.239Z,100242.28
2023-04-29T16:13:20.550Z,100237.33
2023-04-29T16:15:48.585Z,100238.23
2023-04-29T16:18:17.101Z,100241.77
2023-04-29T16:20:45.022Z,100242.64
2023-04-29T16:23:13.174Z,100241.39
2023-04-29T16:25:41.388Z,100234.84
2023-04-29T16:28:09.244Z,100232.70
2023-04-29T16:30:38.024Z,100237.62
2023-04-29T16:33:05.365Z,100242.70
2023-04-29T16:35:34.544Z,100241.44
2023-04-29T16:38:01.594Z,100246.73
2023-04-29T16:40:30.732Z,100247.41
2023-04-29T16:42:58.610Z,100248.29
2023-04-29T16:45:26.350Z,100245.81
2023-04-29T16:47:54.371Z,100246.16
2023-04-29T16:50:22.612Z,100245.29
2023-04-29T16:52:49.782Z,100248.29
2023-04-29T16:55:19.740Z,100243.68
2023-04-29T16:57:47.539Z,100239.81
2023-04-29T17:00:17.923Z,100240.88
2023-04-29T17:02:45.990Z,100242.30
2023-04-29T17:05:14.261Z,100240.90
2023-04-29T17:07:43.879Z,100242.15
2023-04-29T17:10:11.031Z,100249.73
2023-04-29T17:12:40.820Z,100249.38
2023-04-29T17:15:09.387Z,100254.15
2023-04-29T17:17:37.285Z,100255.75
2023-04-29T17:20:05.366Z,100262.65
2023-04-29T17:22:34.947Z,100265.67
2023-04-29T17:25:02.398Z,100270.63
2023-04-29T17:27:31.349Z,100267.46
2023-04-29T17:29:59.244Z,100274.52
2023-04-29T17:32:30.659Z,100274.17
2023-04-29T17:34:59.131Z,100272.07
2023-04-29T17:37:30.388Z,100271.90
2023-04-29T17:39:58.785Z,100270.33
2023-04-29T17:42:27.457Z,100264.34
2023-04-29T17:44:55.558Z,100267.71
2023-04-29T17:47:23.512Z,100264.38
2023-04-29T17:49:51.199Z,100262.98
2023-04-29T17:52:21.057Z,100262.32
2023-04-29T17:54:55.368Z,100258.48
2023-04-29T17:57:24.439Z,100260.42
2023-04-29T17:59:51.918Z,100258.67
2023-04-29T18:02:19.590Z,100257.27
2023-04-29T18:04:46.785Z,100256.03
2023-04-29T18:07:14.492Z,100253.21
2023-04-29T18:09:41.770Z,100250.38
2023-04-29T18:12:09.554Z,100250.19
2023-04-29T18:14:38.572Z,100248.79
2023-04-29T18:17:06.312Z,100247.19
2023-04-29T18:19:33.809Z,100246.31
2023-04-29T18:22:02.200Z,100240.86
2023-04-29T18:24:29.591Z,100241.93
2023-04-29T18:26:57.160Z,100235.41
2023-04-29T18:29:24.490Z,100232.25
2023-04-29T18:31:54.150Z,100221.14
2023-04-29T18:34:21.280Z,100217.61
2023-04-29T18:36:48.972Z,100220.80
2023-04-29T18:39:17.492Z,100220.79
2023-04-29T18:41:44.645Z,100213.20
2023-04-29T18:44:12.419Z,100208.79
2023-04-29T18:46:39.898Z,100206.48
2023-04-29T18:49:08.085Z,100202.77
2023-04-29T18:51:35.547Z,100199.42
2023-04-29T18:54:02.635Z,100193.05
2023-04-29T18:56:30.952Z,100184.06
2023-04-29T18:58:57.957Z,100185.30
2023-04-29T19:01:25.664Z,100181.96
2023-04-29T19:03:53.360Z,100183.39
2023-04-29T19:06:20.630Z,100188.34
2023-04-29T19:08:48.093Z,100191.34
2023-04-29T19:11:15.408Z,100192.22
2023-04-29T19:13:43.232Z,100196.10
2023-04-29T19:16:10.323Z,100190.11
2023-04-29T19:18:38.662Z,100187.98
2023-04-29T19:21:06.568Z,100182.52
2023-04-29T19:23:35.213Z,100170.35
2023-04-29T19:26:02.950Z,100165.23
2023-04-29T19:28:30.408Z,100164.35
2023-04-29T19:30:58.534Z,100158.72
2023-04-29T19:33:26.142Z,100167.02
2023-04-29T19:35:53.363Z,100160.84
2023-04-29T19:38:20.890Z,100160.83
2023-04-29T19:40:48.990Z,100164.37
2023-04-29T19:43:16.593Z,100169.48
2023-04-29T19:45:44.629Z,100165.05
2023-04-29T19:48:12.336Z,100169.45
2023-04-29T19:50:40.024Z,100174.21
2023-04-29T19:53:07.211Z,100169.98
2023-04-29T19:55:34.941Z,100167.51
2023-04-29T19:58:04.333Z,100166.63
2023-04-29T20:00:32.910Z,100161.34
2023-04-29T20:03:00.355Z,100170.52
2023-04-29T20:05:29.086Z,100171.75
2023-04-29T20:07:57.383Z,100180.58
2023-04-29T20:10:25.361Z,100182.70
2023-04-29T20:12:54.101Z,100180.05
2023-04-29T20:15:22.611Z,100174.94
2023-04-29T20:17:50.773Z,100175.30
2023-04-29T20:20:18.799Z,100176.02
2023-04-29T20:22:46.172Z,100175.84
2023-04-29T20:25:13.934Z,100176.37
2023-04-29T20:27:42.020Z,100174.79
2023-04-29T20:30:12.497Z,100163.68
2023-04-29T20:32:40.874Z,100167.20
2023-04-29T20:35:08.061Z,100168.95
2023-04-29T20:37:36.094Z,100166.11
2023-04-29T20:40:06.471Z,100162.95
2023-04-29T20:42:35.012Z,100160.14
2023-04-29T20:45:04.980Z,100157.15
2023-04-29T20:47:34.479Z,100156.44
2023-04-29T20:50:04.308Z,100155.56
2023-04-29T20:52:35.920Z,100152.91
2023-04-29T20:55:03.435Z,100155.04
2023-04-29T20:57:32.167Z,100160.52
2023-04-29T20:59:59.723Z,100165.81
2023-04-29T21:02:26.747Z,100164.77
2023-04-29T21:04:53.735Z,100161.26
2023-04-29T21:07:25.099Z,100152.98
2023-04-29T21:09:52.339Z,100149.83
2023-04-29T21:12:19.512Z,100139.95
2023-04-29T21:14:46.550Z,100140.49
2023-04-29T21:17:15.810Z,100131.52
2023-04-29T21:19:44.868Z,100128.01
2023-04-29T21:22:11.871Z,100125.20
2023-04-29T21:24:38.837Z,100126.61
2023-04-29T21:27:05.799Z,100122.92
2023-04-29T21:29:36.113Z,100128.92
2023-04-29T21:32:03.222Z,100126.64
2023-04-29T21:34:30.258Z,100122.59
2023-04-29T21:36:57.519Z,100114.65
2023-04-29T21:39:27.060Z,100106.19
2023-04-29T21:41:54.425Z,100110.06
2023-04-29T21:44:21.350Z,100105.14
2023-04-29T21:46:48.429Z,100095.96
2023-04-29T21:49:15.561Z,100098.25
2023-04-29T21:51:42.733Z,100099.47
2023-04-29T21:54:11.132Z,100096.83
2023-04-29T21:56:38.261Z,100098.78
2023-04-29T21:59:05.268Z,100098.25
2023-04-29T22:01:44.805Z,100091.56
2023-04-29T22:04:11.841Z,100080.98
2023-04-29T22:06:39.017Z,100078.52
2023-04-29T22:09:08.048Z,100079.60
2023-04-29T22:11:35.192Z,100076.27
2023-04-29T22:14:02.716Z,100074.69
2023-04-29T22:16:30.442Z,100073.97
2023-04-29T22:18:57.992Z,100067.10
2023-04-29T22:21:25.051Z,100064.29
2023-04-29T22:23:52.440Z,100062.88
2023-04-29T22:26:19.637Z,100065.35
2023-04-29T22:28:48.831Z,100067.48
2023-04-29T22:31:16.369Z,100063.27
2023-04-29T22:33:43.432Z,100065.20
2023-04-29T22:36:10.417Z,100067.33
2023-04-29T22:38:38.214Z,100066.27
2023-04-29T22:41:07.359Z,100061.70
2023-04-29T22:43:34.647Z,100061.87
2023-04-29T22:46:02.358Z,100060.45
2023-04-29T22:48:31.385Z,100056.23
2023-04-29T22:51:03.384Z,100047.95
2023-04-29T22:53:32.155Z,100041.80
2023-04-29T22:56:01.388Z,100039.16
2023-04-29T22:58:29.036Z,100039.70
2023-04-29T23:00:57.034Z,100036.02
2023-04-29T23:03:25.491Z,100026.35
2023-04-29T23:05:58.199Z,100026.70
2023-04-29T23:08:26.931Z,100024.06
2023-04-29T23:10:55.157Z,100015.97
2023-04-29T23:13:23.574Z,100013.32
2023-04-29T23:15:55.505Z,100009.07
2023-04-29T23:18:25.181Z,100010.30
2023-04-29T23:20:53.026Z,100005.38
2023-04-29T23:23:22.230Z,100001.35
2023-04-29T23:25:50.597Z,99998.54
2023-04-29T23:28:18.095Z,99995.73
2023-04-29T23:30:49.186Z,99989.40
2023-04-29T23:33:17.309Z,99985.71
2023-04-29T23:35:51.978Z,99982.55
2023-04-29T23:38:19.608Z,99978.50
2023-04-29T23:40:47.242Z,99974.27
2023-04-29T23:43:14.999Z,99978.17
2023-04-29T23:45:46.641Z,99985.59
2023-04-29T23:48:17.996Z,99982.08
2023-04-29T23:50:49.012Z,99971.19
2023-04-29T23:53:20.005Z,99959.75
2023-04-29T23:55:51.043Z,99955.90
2023-04-29T23:58:21.634Z,99955.55
